Terminal Aerodrome Forecast
Issued by NWS Knoxville/Tri Cities, TN

Home | Current Version | Previous Version | Text Only | Print | Product List | Glossary On
Versions: 1 2 3 4 5 6 7 8 9 10 11 12 13
000
FTUS44 KMRX 280529
TAFTYS
TAF
KTYS 280529Z 2806/0106 33004KT P6SM OVC040
     FM281300 23005KT P6SM VCSH OVC020
     FM281700 22010KT P6SM -SHRA OVC020
     FM282200 22008KT 4SM -SHRA BR OVC015
     FM010400 21010KT 4SM BR OVC025=

USA.gov is the U.S. government's official web portal to all federal, state and local government web resources and services.